createdAt,value
2018-12-15T00:00:34.929Z,9.89
2018-12-15T00:01:34.919Z,7.50
2018-12-15T00:02:34.908Z,17.10
2018-12-15T00:03:34.896Z,10.80
2018-12-15T00:04:34.884Z,10.19
2018-12-15T00:05:34.878Z,12.10
2018-12-15T00:06:34.862Z,13.39
2018-12-15T00:07:34.849Z,15.89
2018-12-15T00:08:34.839Z,13.39
2018-12-15T00:09:34.829Z,14.19
2018-12-15T00:10:34.815Z,11.60
2018-12-15T00:11:34.808Z,6.59
2018-12-15T00:12:34.793Z,12.39
2018-12-15T00:13:34.782Z,11.89
2018-12-15T00:14:34.770Z,13.60
2018-12-15T00:15:34.759Z,12.19
2018-12-15T00:16:34.750Z,12.80
2018-12-15T00:17:34.739Z,13.10
2018-12-15T00:18:34.727Z,11.39
2018-12-15T00:19:34.715Z,10.69
2018-12-15T00:20:34.703Z,9.60
2018-12-15T00:21:34.693Z,5.30
2018-12-15T00:22:34.683Z,10.50
2018-12-15T00:23:34.672Z,12.30
2018-12-15T00:24:34.663Z,10.50
2018-12-15T00:25:34.650Z,4.19
2018-12-15T00:26:34.637Z,5.80
2018-12-15T00:27:34.626Z,9.80
2018-12-15T00:28:34.616Z,7.90
2018-12-15T00:29:34.608Z,8.60
2018-12-15T00:30:34.596Z,9.30
2018-12-15T00:31:34.586Z,9.50
2018-12-15T00:32:34.572Z,6.30
2018-12-15T00:33:34.583Z,9.39
2018-12-15T00:34:34.547Z,7.69
2018-12-15T00:35:34.539Z,6.50
2018-12-15T00:36:34.526Z,12.60
2018-12-15T00:37:34.513Z,7.40
2018-12-15T00:38:34.504Z,10.50
2018-12-15T00:39:34.491Z,8.60
2018-12-15T00:40:34.478Z,9.00
2018-12-15T00:41:34.469Z,10.60
2018-12-15T00:42:34.456Z,8.60
2018-12-15T00:43:34.443Z,7.40
2018-12-15T00:44:34.433Z,8.69
2018-12-15T00:45:34.424Z,8.69
2018-12-15T00:46:34.413Z,9.30
2018-12-15T00:47:34.398Z,8.30
2018-12-15T00:48:34.387Z,6.90
2018-12-15T00:49:34.377Z,8.00
2018-12-15T00:50:34.371Z,10.00
2018-12-15T00:51:34.357Z,9.89
2018-12-15T00:52:34.343Z,8.00
2018-12-15T00:53:34.332Z,6.50
2018-12-15T00:54:34.326Z,11.00
2018-12-15T00:55:34.309Z,10.89
2018-12-15T00:56:34.300Z,9.39
2018-12-15T00:57:34.286Z,8.80
2018-12-15T00:58:34.275Z,9.69
2018-12-15T00:59:34.267Z,8.69
2018-12-15T01:00:34.252Z,10.60
2018-12-15T01:01:34.241Z,8.60
2018-12-15T01:02:34.230Z,8.50
2018-12-15T01:03:34.220Z,9.60
2018-12-15T01:04:34.212Z,9.60
2018-12-15T01:05:34.202Z,9.50
2018-12-15T01:06:34.186Z,10.00
2018-12-15T01:07:35.246Z,12.50
2018-12-15T01:08:34.167Z,11.19
2018-12-15T01:09:34.153Z,10.10
2018-12-15T01:10:34.140Z,7.69
2018-12-15T01:11:34.133Z,10.60
2018-12-15T01:12:34.119Z,10.80
2018-12-15T01:13:34.117Z,6.80
2018-12-15T01:14:34.101Z,11.39
2018-12-15T01:15:34.089Z,9.60
2018-12-15T01:16:34.074Z,8.50
2018-12-15T01:17:34.065Z,10.00
2018-12-15T01:18:34.054Z,9.30
2018-12-15T01:19:34.043Z,8.39
2018-12-15T01:20:34.029Z,7.00
2018-12-15T01:21:34.017Z,8.50
2018-12-15T01:22:34.006Z,7.59
2018-12-15T01:23:34.001Z,7.59
2018-12-15T01:24:33.986Z,9.69
2018-12-15T01:25:33.978Z,9.19
2018-12-15T01:26:33.964Z,8.19
2018-12-15T01:27:33.952Z,10.80
2018-12-15T01:28:33.940Z,9.30
2018-12-15T01:29:33.927Z,8.19
2018-12-15T01:30:33.917Z,7.59
2018-12-15T01:31:33.904Z,8.19
2018-12-15T01:32:33.894Z,8.50
2018-12-15T01:33:33.888Z,11.19
2018-12-15T01:34:33.872Z,7.90
2018-12-15T01:35:33.859Z,11.50
2018-12-15T01:36:33.853Z,7.59
2018-12-15T01:37:33.837Z,12.00
2018-12-15T01:38:33.824Z,11.39
2018-12-15T01:39:33.814Z,9.39
2018-12-15T01:40:33.803Z,9.50
2018-12-15T01:41:33.791Z,8.69
2018-12-15T01:42:33.782Z,7.90
2018-12-15T01:43:33.770Z,7.80
2018-12-15T01:44:33.757Z,8.89
2018-12-15T01:45:33.746Z,8.89
2018-12-15T01:46:33.735Z,8.39
2018-12-15T01:47:33.723Z,6.69
2018-12-15T01:48:33.720Z,7.19
2018-12-15T01:49:33.708Z,7.40
2018-12-15T01:50:33.690Z,6.90
2018-12-15T01:51:33.678Z,7.90
2018-12-15T01:52:33.666Z,7.09
2018-12-15T01:53:33.661Z,7.09
2018-12-15T01:54:33.645Z,9.89
2018-12-15T01:55:33.634Z,6.80
2018-12-15T01:56:33.624Z,8.19
2018-12-15T01:57:33.611Z,5.19
2018-12-15T01:58:33.599Z,5.40
2018-12-15T01:59:33.589Z,3.70
2018-12-15T02:00:33.581Z,5.59
2018-12-15T02:01:33.566Z,6.69
2018-12-15T02:02:33.553Z,5.50
2018-12-15T02:03:33.579Z,8.00
2018-12-15T02:04:33.538Z,9.50
2018-12-15T02:05:33.520Z,7.59
2018-12-15T02:06:33.509Z,5.59
2018-12-15T02:07:33.501Z,7.40
2018-12-15T02:08:33.487Z,8.00
2018-12-15T02:09:33.474Z,8.80
2018-12-15T02:10:33.464Z,7.19
2018-12-15T02:11:33.456Z,7.00
2018-12-15T02:12:33.440Z,7.40
2018-12-15T02:13:33.432Z,6.69
2018-12-15T02:14:33.418Z,6.30
2018-12-15T02:15:33.409Z,5.59
2018-12-15T02:16:33.397Z,9.39
2018-12-15T02:17:33.847Z,7.09
2018-12-15T02:18:33.372Z,5.00
2018-12-15T02:19:33.362Z,6.59
2018-12-15T02:20:33.353Z,9.69
2018-12-15T02:21:33.340Z,8.10
2018-12-15T02:22:33.330Z,6.19
2018-12-15T02:23:33.323Z,6.50
2018-12-15T02:24:33.310Z,7.30
2018-12-15T02:25:33.296Z,7.30
2018-12-15T02:26:33.286Z,7.00
2018-12-15T02:27:33.275Z,5.19
2018-12-15T02:28:33.262Z,7.00
2018-12-15T02:29:33.250Z,5.69
2018-12-15T02:30:33.237Z,6.59
2018-12-15T02:31:33.238Z,6.00
2018-12-15T02:32:33.215Z,7.69
2018-12-15T02:33:33.205Z,5.19
2018-12-15T02:34:33.192Z,5.30
2018-12-15T02:35:33.191Z,4.09
2018-12-15T02:36:33.174Z,3.20
2018-12-15T02:37:33.158Z,4.80
2018-12-15T02:38:33.148Z,5.69
2018-12-15T02:39:33.137Z,6.00
2018-12-15T02:40:33.127Z,5.59
2018-12-15T02:41:33.136Z,8.10
2018-12-15T02:42:33.112Z,5.59
2018-12-15T02:43:33.095Z,4.09
2018-12-15T02:44:33.083Z,5.40
2018-12-15T02:45:33.078Z,8.10
2018-12-15T02:46:33.060Z,5.09
2018-12-15T02:47:33.048Z,3.90
2018-12-15T02:48:33.041Z,6.90
2018-12-15T02:49:33.024Z,2.40
2018-12-15T02:50:33.014Z,4.09
2018-12-15T02:51:33.007Z,5.09
2018-12-15T02:52:32.992Z,5.69
2018-12-15T02:53:32.980Z,5.40
2018-12-15T02:54:32.976Z,6.50
2018-12-15T02:55:32.957Z,2.79
2018-12-15T02:56:32.952Z,4.09
2018-12-15T02:57:32.936Z,5.59
2018-12-15T02:58:32.934Z,4.59
2018-12-15T02:59:32.917Z,4.69
2018-12-15T03:00:32.905Z,3.40
2018-12-15T03:01:32.892Z,2.79
2018-12-15T03:02:32.880Z,4.19
2018-12-15T03:03:32.891Z,4.19
2018-12-15T03:04:32.863Z,2.59
2018-12-15T03:05:32.845Z,3.50
2018-12-15T03:06:32.841Z,4.09
2018-12-15T03:07:32.824Z,1.70
2018-12-15T03:08:32.818Z,6.09
2018-12-15T03:09:32.810Z,4.00
2018-12-15T03:10:32.793Z,4.80
2018-12-15T03:11:32.783Z,1.90
2018-12-15T03:12:32.766Z,3.29
2018-12-15T03:13:32.758Z,3.59
2018-12-15T03:14:32.748Z,4.30
2018-12-15T03:15:32.736Z,5.50
2018-12-15T03:16:32.722Z,4.59
2018-12-15T03:17:32.711Z,5.09
2018-12-15T03:18:32.702Z,5.19
2018-12-15T03:19:32.688Z,6.90
2018-12-15T03:20:32.677Z,6.09
2018-12-15T03:21:32.668Z,4.30
2018-12-15T03:22:32.666Z,4.00
2018-12-15T03:23:32.646Z,3.50
2018-12-15T03:24:32.634Z,4.19
2018-12-15T03:25:32.621Z,6.00
2018-12-15T03:26:32.620Z,3.59
2018-12-15T03:27:32.620Z,4.50
2018-12-15T03:28:32.628Z,4.40
2018-12-15T03:29:32.579Z,5.80
2018-12-15T03:30:32.585Z,3.50
2018-12-15T03:31:34.369Z,5.00
2018-12-15T03:32:32.578Z,4.59
2018-12-15T03:33:32.579Z,3.59
2018-12-15T03:34:32.522Z,4.80
2018-12-15T03:35:32.509Z,4.40
2018-12-15T03:36:32.503Z,5.09
2018-12-15T03:37:32.486Z,5.90
2018-12-15T03:38:32.475Z,6.19
2018-12-15T03:39:32.463Z,5.19
2018-12-15T03:40:32.455Z,4.19
2018-12-15T03:41:32.449Z,4.00
2018-12-15T03:42:32.434Z,3.50
2018-12-15T03:43:32.421Z,4.30
2018-12-15T03:44:32.411Z,5.59
2018-12-15T03:45:32.400Z,5.09
2018-12-15T03:46:32.386Z,8.30
2018-12-15T03:47:32.385Z,6.59
2018-12-15T03:48:32.368Z,5.59
2018-12-15T03:49:32.355Z,5.69
2018-12-15T03:50:32.342Z,5.80
2018-12-15T03:51:32.337Z,3.70
2018-12-15T03:52:32.320Z,6.09
2018-12-15T03:53:32.308Z,4.80
2018-12-15T03:54:32.300Z,5.40
2018-12-15T03:55:32.286Z,5.09
2018-12-15T03:56:32.279Z,6.69
2018-12-15T03:57:32.263Z,4.00
2018-12-15T03:58:32.252Z,4.69
2018-12-15T03:59:32.240Z,4.69
2018-12-15T04:00:32.229Z,6.09
2018-12-15T04:01:32.297Z,4.69
2018-12-15T04:02:32.207Z,5.40
2018-12-15T04:03:32.196Z,5.19
2018-12-15T04:04:32.188Z,5.80
2018-12-15T04:05:32.176Z,6.40
2018-12-15T04:06:32.165Z,3.40
2018-12-15T04:07:32.180Z,4.50
2018-12-15T04:08:32.150Z,5.69
2018-12-15T04:09:32.131Z,7.40
2018-12-15T04:10:32.122Z,6.09
2018-12-15T04:11:32.107Z,6.50
2018-12-15T04:12:32.101Z,5.09
2018-12-15T04:13:32.089Z,4.30
2018-12-15T04:14:32.081Z,3.50
2018-12-15T04:15:32.063Z,5.69
2018-12-15T04:16:32.052Z,4.69
2018-12-15T04:17:32.043Z,4.80
2018-12-15T04:18:32.033Z,5.19
2018-12-15T04:19:32.037Z,5.40
2018-12-15T04:20:32.010Z,5.19
2018-12-15T04:21:32.018Z,7.00
2018-12-15T04:22:31.986Z,5.90
2018-12-15T04:23:31.978Z,5.50
2018-12-15T04:24:31.967Z,4.09
2018-12-15T04:25:31.997Z,6.50
2018-12-15T04:26:31.950Z,7.19
2018-12-15T04:27:31.939Z,4.19
2018-12-15T04:28:31.920Z,4.69
2018-12-15T04:29:31.959Z,5.90
2018-12-15T04:30:31.901Z,7.09
2018-12-15T04:31:31.899Z,7.09
2018-12-15T04:32:31.883Z,6.30
2018-12-15T04:33:31.896Z,5.80
2018-12-15T04:34:31.863Z,6.80
2018-12-15T04:35:31.848Z,5.69
2018-12-15T04:36:31.831Z,5.19
2018-12-15T04:37:31.862Z,5.50
2018-12-15T04:38:31.815Z,4.59
2018-12-15T04:39:31.799Z,4.90
2018-12-15T04:40:31.786Z,6.00
2018-12-15T04:41:31.804Z,5.30
2018-12-15T04:42:31.765Z,10.00
2018-12-15T04:43:31.755Z,6.09
2018-12-15T04:44:31.740Z,5.09
2018-12-15T04:45:31.769Z,4.90
2018-12-15T04:46:31.720Z,4.80
2018-12-15T04:47:31.710Z,5.90
2018-12-15T04:48:31.706Z,6.40
2018-12-15T04:49:31.714Z,5.59
2018-12-15T04:50:31.674Z,5.69
2018-12-15T04:51:31.672Z,6.19
2018-12-15T04:52:31.650Z,5.50
2018-12-15T04:53:31.686Z,6.30
2018-12-15T04:54:31.641Z,4.40
2018-12-15T04:55:31.623Z,7.09
2018-12-15T04:56:31.610Z,7.69
2018-12-15T04:57:31.621Z,4.80
2018-12-15T04:58:31.590Z,6.90
2018-12-15T04:59:31.577Z,5.59
2018-12-15T05:00:31.560Z,5.40
2018-12-15T05:01:31.549Z,7.09
2018-12-15T05:02:31.539Z,6.50
2018-12-15T05:03:31.534Z,5.09
2018-12-15T05:04:31.519Z,5.30
2018-12-15T05:05:31.508Z,6.19
2018-12-15T05:06:31.496Z,5.50
2018-12-15T05:07:31.484Z,5.59
2018-12-15T05:08:31.475Z,5.59
2018-12-15T05:09:31.458Z,7.90
2018-12-15T05:10:31.448Z,7.09
2018-12-15T05:11:31.437Z,4.80
2018-12-15T05:12:31.425Z,8.10
2018-12-15T05:13:31.414Z,7.09
2018-12-15T05:14:31.403Z,6.50
2018-12-15T05:15:31.395Z,5.50
2018-12-15T05:16:31.382Z,4.90
2018-12-15T05:17:31.368Z,5.19
2018-12-15T05:18:31.356Z,6.90
2018-12-15T05:19:31.348Z,5.59
2018-12-15T05:20:31.338Z,8.19
2018-12-15T05:21:31.324Z,5.40
2018-12-15T05:22:31.314Z,5.50
2018-12-15T05:23:31.300Z,6.50
2018-12-15T05:24:31.289Z,6.69
2018-12-15T05:25:31.284Z,4.80
2018-12-15T05:26:31.267Z,5.30
2018-12-15T05:27:31.256Z,5.69
2018-12-15T05:28:31.246Z,6.69
2018-12-15T05:29:31.235Z,5.40
2018-12-15T05:30:31.225Z,6.00
2018-12-15T05:31:31.211Z,4.30
2018-12-15T05:32:31.207Z,7.40
2018-12-15T05:33:31.195Z,7.19
2018-12-15T05:34:31.178Z,5.50
2018-12-15T05:35:31.173Z,7.80
2018-12-15T05:36:31.157Z,4.40
2018-12-15T05:37:31.145Z,4.80
2018-12-15T05:38:31.136Z,8.10
2018-12-15T05:39:31.132Z,7.69
2018-12-15T05:40:31.117Z,7.69
2018-12-15T05:41:31.103Z,6.69
2018-12-15T05:42:31.089Z,6.80
2018-12-15T05:43:31.077Z,6.00
2018-12-15T05:44:31.065Z,5.30
2018-12-15T05:45:31.053Z,5.59
2018-12-15T05:46:31.047Z,6.90
2018-12-15T05:47:31.031Z,4.40
2018-12-15T05:48:31.021Z,10.30
2018-12-15T05:49:31.014Z,4.80
2018-12-15T05:50:30.996Z,7.09
2018-12-15T05:51:30.987Z,7.90
2018-12-15T05:52:30.976Z,6.80
2018-12-15T05:53:30.964Z,6.19
2018-12-15T05:54:30.953Z,8.50
2018-12-15T05:55:30.943Z,5.30
2018-12-15T05:56:30.932Z,8.10
2018-12-15T05:57:30.921Z,5.59
2018-12-15T05:58:30.919Z,7.50
2018-12-15T05:59:30.899Z,6.09
2018-12-15T06:00:30.890Z,6.09
2018-12-15T06:01:30.885Z,6.80
2018-12-15T06:02:30.870Z,4.59
2018-12-15T06:03:30.855Z,7.09
2018-12-15T06:04:30.842Z,5.09
2018-12-15T06:05:30.828Z,7.50
2018-12-15T06:06:30.818Z,8.60
2018-12-15T06:07:30.807Z,7.80
2018-12-15T06:08:30.795Z,6.30
2018-12-15T06:09:30.787Z,8.60
2018-12-15T06:10:30.773Z,6.59
2018-12-15T06:11:30.761Z,6.19
2018-12-15T06:12:30.751Z,6.19
2018-12-15T06:13:30.738Z,8.19
2018-12-15T06:14:30.730Z,7.30
2018-12-15T06:15:30.717Z,8.10
2018-12-15T06:16:30.706Z,9.69
2018-12-15T06:17:30.696Z,8.00
2018-12-15T06:18:31.816Z,7.69
2018-12-15T06:19:30.671Z,10.00
2018-12-15T06:20:30.665Z,6.80
2018-12-15T06:21:30.654Z,8.10
2018-12-15T06:22:30.637Z,7.30
2018-12-15T06:23:30.627Z,7.90
2018-12-15T06:24:30.616Z,8.30
2018-12-15T06:25:30.607Z,8.00
2018-12-15T06:26:30.596Z,8.00
2018-12-15T06:27:30.587Z,8.39
2018-12-15T06:28:30.571Z,6.59
2018-12-15T06:29:30.560Z,6.40
2018-12-15T06:30:30.551Z,8.89
2018-12-15T06:31:30.540Z,7.19
2018-12-15T06:32:30.526Z,7.80
2018-12-15T06:33:30.515Z,8.50
2018-12-15T06:34:30.504Z,7.09
2018-12-15T06:35:30.493Z,7.69
2018-12-15T06:36:30.480Z,6.19
2018-12-15T06:37:30.470Z,6.00
2018-12-15T06:38:30.457Z,5.69
2018-12-15T06:39:30.448Z,9.80
2018-12-15T06:40:30.437Z,6.30
2018-12-15T06:41:30.425Z,6.19
2018-12-15T06:42:30.414Z,6.90
2018-12-15T06:43:30.402Z,7.30
2018-12-15T06:44:30.391Z,9.10
2018-12-15T06:45:30.380Z,10.80
2018-12-15T06:46:30.369Z,6.09
2018-12-15T06:47:30.369Z,6.69
2018-12-15T06:48:30.345Z,7.80
2018-12-15T06:49:30.335Z,9.00
2018-12-15T06:50:30.329Z,7.50
2018-12-15T06:51:30.312Z,5.80
2018-12-15T06:52:30.300Z,7.40
2018-12-15T06:53:30.295Z,9.69
2018-12-15T06:54:30.279Z,9.10
2018-12-15T06:55:30.269Z,10.60
2018-12-15T06:56:30.257Z,7.59
2018-12-15T06:57:30.243Z,7.50
2018-12-15T06:58:30.244Z,7.80
2018-12-15T06:59:30.223Z,7.50
2018-12-15T07:00:30.214Z,10.80
2018-12-15T07:01:30.200Z,12.10
2018-12-15T07:02:30.188Z,7.90
2018-12-15T07:03:30.177Z,10.19
2018-12-15T07:04:30.168Z,7.00
2018-12-15T07:05:30.154Z,8.60
2018-12-15T07:06:30.144Z,8.00
2018-12-15T07:07:30.132Z,7.69
2018-12-15T07:08:30.121Z,9.30
2018-12-15T07:09:30.109Z,7.09
2018-12-15T07:10:30.098Z,13.69
2018-12-15T07:11:30.089Z,10.10
2018-12-15T07:12:30.079Z,10.30
2018-12-15T07:13:30.066Z,10.39
2018-12-15T07:14:30.060Z,23.10
2018-12-15T07:15:30.042Z,10.69
2018-12-15T07:16:30.032Z,10.39
2018-12-15T07:17:30.019Z,9.60
2018-12-15T07:18:30.009Z,10.50
2018-12-15T07:19:29.999Z,7.59
2018-12-15T07:20:29.988Z,7.30
2018-12-15T07:21:29.972Z,8.89
2018-12-15T07:22:29.965Z,8.50
2018-12-15T07:23:30.017Z,10.39
2018-12-15T07:24:29.939Z,9.69
2018-12-15T07:25:29.935Z,10.00
2018-12-15T07:26:29.919Z,10.19
2018-12-15T07:27:29.909Z,11.89
2018-12-15T07:28:29.901Z,8.69
2018-12-15T07:29:29.883Z,9.30
2018-12-15T07:30:29.871Z,9.19
2018-12-15T07:31:29.860Z,9.10
2018-12-15T07:32:29.850Z,9.89
2018-12-15T07:33:29.839Z,8.60
2018-12-15T07:34:29.828Z,8.10
2018-12-15T07:35:29.814Z,6.90
2018-12-15T07:36:29.804Z,9.00
2018-12-15T07:37:29.799Z,7.80
2018-12-15T07:38:29.784Z,10.00
2018-12-15T07:39:29.770Z,9.10
2018-12-15T07:40:29.764Z,11.10
2018-12-15T07:41:29.753Z,7.69
2018-12-15T07:42:29.737Z,12.39
2018-12-15T07:43:29.728Z,8.69
2018-12-15T07:44:29.714Z,9.50
2018-12-15T07:45:29.703Z,14.69
2018-12-15T07:46:29.690Z,8.60
2018-12-15T07:47:29.679Z,7.19
2018-12-15T07:48:29.673Z,7.80
2018-12-15T07:49:29.658Z,7.19
2018-12-15T07:50:29.653Z,8.19
2018-12-15T07:51:29.636Z,7.00
2018-12-15T07:52:29.625Z,9.30
2018-12-15T07:53:29.618Z,7.50
2018-12-15T07:54:29.601Z,10.89
2018-12-15T07:55:29.588Z,8.19
2018-12-15T07:56:29.579Z,9.69
2018-12-15T07:57:29.569Z,6.19
2018-12-15T07:58:29.554Z,6.59
2018-12-15T07:59:29.544Z,10.10
2018-12-15T08:00:29.532Z,9.30
2018-12-15T08:01:29.520Z,10.39
2018-12-15T08:02:29.511Z,7.50
2018-12-15T08:03:29.500Z,15.80
2018-12-15T08:04:29.487Z,8.69
2018-12-15T08:05:29.476Z,29.10
2018-12-15T08:06:29.464Z,9.80
2018-12-15T08:07:29.463Z,7.00
2018-12-15T08:08:29.443Z,10.50
2018-12-15T08:09:29.432Z,7.19
2018-12-15T08:10:29.419Z,22.79
2018-12-15T08:11:29.409Z,10.10
2018-12-15T08:12:29.405Z,7.09
2018-12-15T08:13:29.391Z,9.00
2018-12-15T08:14:29.377Z,7.50
2018-12-15T08:15:29.374Z,10.19
2018-12-15T08:16:29.355Z,7.30
2018-12-15T08:17:29.342Z,6.00
2018-12-15T08:18:29.336Z,8.39
2018-12-15T08:19:29.321Z,9.30
2018-12-15T08:20:29.308Z,10.30
2018-12-15T08:21:29.298Z,8.30
2018-12-15T08:22:29.287Z,8.30
2018-12-15T08:23:29.275Z,7.30
2018-12-15T08:24:29.266Z,9.80
2018-12-15T08:25:29.253Z,8.80
2018-12-15T08:26:29.245Z,8.39
2018-12-15T08:27:29.230Z,7.90
2018-12-15T08:28:29.219Z,8.19
2018-12-15T08:29:29.208Z,7.90
2018-12-15T08:30:29.198Z,10.19
2018-12-15T08:31:29.186Z,8.60
2018-12-15T08:32:29.174Z,6.50
2018-12-15T08:33:29.164Z,7.40
2018-12-15T08:34:29.154Z,10.50
2018-12-15T08:35:29.147Z,9.30
2018-12-15T08:36:29.131Z,6.19
2018-12-15T08:37:29.120Z,10.80
2018-12-15T08:38:29.111Z,7.40
2018-12-15T08:39:29.096Z,8.80
2018-12-15T08:40:29.085Z,9.69
2018-12-15T08:41:29.074Z,7.50
2018-12-15T08:42:29.063Z,9.89
2018-12-15T08:43:29.051Z,8.89
2018-12-15T08:44:29.041Z,8.10
2018-12-15T08:45:29.031Z,8.89
2018-12-15T08:46:29.024Z,8.60
2018-12-15T08:47:29.016Z,8.50
2018-12-15T08:48:28.996Z,8.69
2018-12-15T08:49:28.989Z,8.10
2018-12-15T08:50:28.975Z,8.39
2018-12-15T08:51:28.966Z,8.80
2018-12-15T08:52:28.960Z,7.40
2018-12-15T08:53:28.945Z,8.10
2018-12-15T08:54:28.931Z,7.69
2018-12-15T08:55:28.920Z,8.50
2018-12-15T08:56:28.911Z,7.50
2018-12-15T08:57:28.894Z,7.59
2018-12-15T08:58:28.888Z,8.00
2018-12-15T08:59:28.874Z,8.19
2018-12-15T09:00:28.867Z,11.60
2018-12-15T09:01:28.850Z,8.50
2018-12-15T09:02:28.839Z,7.90
2018-12-15T09:03:28.829Z,8.10
2018-12-15T09:04:28.818Z,6.40
2018-12-15T09:05:28.806Z,7.09
2018-12-15T09:06:28.796Z,10.39
2018-12-15T09:07:28.784Z,8.60
2018-12-15T09:08:28.774Z,10.10
2018-12-15T09:09:28.767Z,7.00
2018-12-15T09:10:28.767Z,7.69
2018-12-15T09:11:28.770Z,8.60
2018-12-15T09:12:28.775Z,10.00
2018-12-15T09:13:28.722Z,10.10
2018-12-15T09:14:28.719Z,7.69
2018-12-15T09:15:28.721Z,9.39
2018-12-15T09:16:28.726Z,8.50
2018-12-15T09:17:28.674Z,9.69
2018-12-15T09:18:28.668Z,8.60
2018-12-15T09:19:28.649Z,8.50
2018-12-15T09:20:28.641Z,8.50
2018-12-15T09:21:28.630Z,9.69
2018-12-15T09:22:28.617Z,11.50
2018-12-15T09:23:28.605Z,12.00
2018-12-15T09:24:28.600Z,9.10
2018-12-15T09:25:28.589Z,9.19
2018-12-15T09:26:28.573Z,10.50
2018-12-15T09:27:28.563Z,10.69
2018-12-15T09:28:28.558Z,10.60
2018-12-15T09:29:28.541Z,9.89
2018-12-15T09:30:28.529Z,8.50
2018-12-15T09:31:28.524Z,10.00
2018-12-15T09:32:28.504Z,12.30
2018-12-15T09:33:28.495Z,11.69
2018-12-15T09:34:28.482Z,14.89
2018-12-15T09:35:28.471Z,14.89
2018-12-15T09:36:28.461Z,10.89
2018-12-15T09:37:28.449Z,10.80
2018-12-15T09:38:28.437Z,12.80
2018-12-15T09:39:28.428Z,11.89
2018-12-15T09:40:28.415Z,9.39
2018-12-15T09:41:28.405Z,13.19
2018-12-15T09:42:28.398Z,14.80
2018-12-15T09:43:28.385Z,16.60
2018-12-15T09:44:28.373Z,13.50
2018-12-15T09:45:28.360Z,15.50
2018-12-15T09:46:28.348Z,13.00
2018-12-15T09:47:28.341Z,16.10
2018-12-15T09:48:28.325Z,12.39
2018-12-15T09:49:28.316Z,12.80
2018-12-15T09:50:28.304Z,10.00
2018-12-15T09:51:28.301Z,14.50
2018-12-15T09:52:28.284Z,8.89
2018-12-15T09:53:28.272Z,14.89
2018-12-15T09:54:28.260Z,12.30
2018-12-15T09:55:28.250Z,12.69
2018-12-15T09:56:28.240Z,9.69
2018-12-15T09:57:28.228Z,9.80
2018-12-15T09:58:28.215Z,9.39
2018-12-15T09:59:28.205Z,7.09
2018-12-15T10:00:28.196Z,11.19
2018-12-15T10:01:28.183Z,10.50
2018-12-15T10:02:28.174Z,10.60
2018-12-15T10:03:28.162Z,9.30
2018-12-15T10:04:28.155Z,13.39
2018-12-15T10:05:28.138Z,11.30
2018-12-15T10:06:28.129Z,10.39
2018-12-15T10:07:28.120Z,11.50
2018-12-15T10:08:28.110Z,11.30
2018-12-15T10:09:28.100Z,10.89
2018-12-15T10:10:28.084Z,13.00
2018-12-15T10:11:28.076Z,9.39
2018-12-15T10:12:28.062Z,8.89
2018-12-15T10:13:28.049Z,10.19
2018-12-15T10:14:28.040Z,9.60
2018-12-15T10:15:28.027Z,11.80
2018-12-15T10:16:28.016Z,20.79
2018-12-15T10:17:28.006Z,24.10
2018-12-15T10:18:28.001Z,12.60
2018-12-15T10:19:27.985Z,10.80
2018-12-15T10:20:27.975Z,6.69
2018-12-15T10:21:27.960Z,9.39
2018-12-15T10:22:27.949Z,16.60
2018-12-15T10:23:27.938Z,15.19
2018-12-15T10:24:27.936Z,15.19
2018-12-15T10:25:27.915Z,10.89
2018-12-15T10:26:27.904Z,11.89
2018-12-15T10:27:27.902Z,11.19
2018-12-15T10:28:27.883Z,11.60
2018-12-15T10:29:27.872Z,15.39
2018-12-15T10:30:27.865Z,16.10
2018-12-15T10:31:27.849Z,11.69
2018-12-15T10:32:27.838Z,12.60
2018-12-15T10:33:27.826Z,15.10
2018-12-15T10:34:27.821Z,11.89
2018-12-15T10:35:27.809Z,12.50
2018-12-15T10:36:27.799Z,13.39
2018-12-15T10:37:27.787Z,11.10
2018-12-15T10:38:27.772Z,12.30
2018-12-15T10:39:27.759Z,8.60
2018-12-15T10:40:27.749Z,12.80
2018-12-15T10:41:27.737Z,10.69
2018-12-15T10:42:27.724Z,14.30
2018-12-15T10:43:27.715Z,15.80
2018-12-15T10:44:27.702Z,11.50
2018-12-15T10:45:27.691Z,11.80
2018-12-15T10:46:27.681Z,12.10
2018-12-15T10:47:27.670Z,20.60
2018-12-15T10:48:27.672Z,10.10
2018-12-15T10:49:30.650Z,12.19
2018-12-15T10:50:27.635Z,26.29
2018-12-15T10:51:27.632Z,12.00
2018-12-15T10:52:27.621Z,11.30
2018-12-15T10:53:27.602Z,12.30
2018-12-15T10:54:27.591Z,13.50
2018-12-15T10:55:27.586Z,12.80
2018-12-15T10:56:27.569Z,14.30
2018-12-15T10:57:27.560Z,16.39
2018-12-15T10:58:27.554Z,12.69
2018-12-15T10:59:27.539Z,13.00
2018-12-15T11:00:27.524Z,13.10
2018-12-15T11:01:27.514Z,11.10
2018-12-15T11:02:27.503Z,11.69
2018-12-15T11:03:27.498Z,12.89
2018-12-15T11:04:27.482Z,8.60
2018-12-15T11:05:27.475Z,19.79
2018-12-15T11:06:27.464Z,15.89
2018-12-15T11:07:27.455Z,12.69
2018-12-15T11:08:27.435Z,15.19
2018-12-15T11:09:27.432Z,15.19
2018-12-15T11:10:27.414Z,11.69
2018-12-15T11:11:27.407Z,19.20
2018-12-15T11:12:27.391Z,11.10
2018-12-15T11:13:27.394Z,11.30
2018-12-15T11:14:27.369Z,10.19
2018-12-15T11:15:27.365Z,11.80
2018-12-15T11:16:27.349Z,12.39
2018-12-15T11:17:27.335Z,11.60
2018-12-15T11:18:27.325Z,21.60
2018-12-15T11:19:27.314Z,14.50
2018-12-15T11:20:27.304Z,14.89
2018-12-15T11:21:27.300Z,15.10
2018-12-15T11:22:27.279Z,17.00
2018-12-15T11:23:27.269Z,10.19
2018-12-15T11:24:27.267Z,14.80
2018-12-15T11:25:27.249Z,11.89
2018-12-15T11:26:27.236Z,11.10
2018-12-15T11:27:27.223Z,11.89
2018-12-15T11:28:27.212Z,11.00
2018-12-15T11:29:27.203Z,16.10
2018-12-15T11:30:27.190Z,15.69
2018-12-15T11:31:27.179Z,14.60
2018-12-15T11:32:27.168Z,16.79
2018-12-15T11:33:27.157Z,14.19
2018-12-15T11:34:27.148Z,10.89
2018-12-15T11:35:27.134Z,11.69
2018-12-15T11:36:27.123Z,12.10
2018-12-15T11:37:27.132Z,14.60
2018-12-15T11:38:27.101Z,12.10
2018-12-15T11:39:27.091Z,19.20
2018-12-15T11:40:27.081Z,12.19
2018-12-15T11:41:27.069Z,13.50
2018-12-15T11:42:27.064Z,15.89
2018-12-15T11:43:27.047Z,20.29
2018-12-15T11:44:27.040Z,12.00
2018-12-15T11:45:27.028Z,12.39
2018-12-15T11:46:27.015Z,11.00
2018-12-15T11:47:27.001Z,11.10
2018-12-15T11:48:26.991Z,14.50
2018-12-15T11:49:26.987Z,15.39
2018-12-15T11:50:26.969Z,18.89
2018-12-15T11:51:26.960Z,14.10
2018-12-15T11:52:26.954Z,14.89
2018-12-15T11:53:26.936Z,18.50
2018-12-15T11:54:26.923Z,16.39
2018-12-15T11:55:26.916Z,12.89
2018-12-15T11:56:26.909Z,23.50
2018-12-15T11:57:26.890Z,17.79
2018-12-15T11:58:26.879Z,12.39
2018-12-15T11:59:26.868Z,14.50
2018-12-15T12:00:26.863Z,14.80
2018-12-15T12:01:26.848Z,11.50
2018-12-15T12:02:31.874Z,12.50
2018-12-15T12:03:26.823Z,15.19
2018-12-15T12:04:26.818Z,16.50
2018-12-15T12:05:26.804Z,11.19
2018-12-15T12:06:26.796Z,14.80
2018-12-15T12:07:26.778Z,13.60
2018-12-15T12:08:26.772Z,12.30
2018-12-15T12:09:26.754Z,14.00
2018-12-15T12:10:26.743Z,13.80
2018-12-15T12:11:26.738Z,13.50
2018-12-15T12:12:26.725Z,16.60
2018-12-15T12:13:26.710Z,17.00
2018-12-15T12:14:26.702Z,14.69
2018-12-15T12:15:26.696Z,17.29
2018-12-15T12:16:26.677Z,14.80
2018-12-15T12:17:26.662Z,15.10
2018-12-15T12:18:26.663Z,9.80
2018-12-15T12:19:26.642Z,18.20
2018-12-15T12:20:26.628Z,14.69
2018-12-15T12:21:26.618Z,13.10
2018-12-15T12:22:26.607Z,15.50
2018-12-15T12:23:26.602Z,15.10
2018-12-15T12:24:26.583Z,29.79
2018-12-15T12:25:26.571Z,18.29
2018-12-15T12:26:26.559Z,16.10
2018-12-15T12:27:26.552Z,14.10
2018-12-15T12:28:26.537Z,14.39
2018-12-15T12:29:26.525Z,16.20
2018-12-15T12:30:26.516Z,12.60
2018-12-15T12:31:26.502Z,15.19
2018-12-15T12:32:26.493Z,16.60
2018-12-15T12:33:26.481Z,12.10
2018-12-15T12:34:26.470Z,12.50
2018-12-15T12:35:26.457Z,13.89
2018-12-15T12:36:26.446Z,13.19
2018-12-15T12:37:26.433Z,11.50
2018-12-15T12:38:26.428Z,15.00
2018-12-15T12:39:26.414Z,17.89
2018-12-15T12:40:26.400Z,17.10
2018-12-15T12:41:26.387Z,13.80
2018-12-15T12:42:26.378Z,14.50
2018-12-15T12:43:26.365Z,17.50
2018-12-15T12:44:26.361Z,20.89
2018-12-15T12:45:26.342Z,13.10
2018-12-15T12:46:26.336Z,13.39
2018-12-15T12:47:26.320Z,14.60
2018-12-15T12:48:26.307Z,17.50
2018-12-15T12:49:26.302Z,18.39
2018-12-15T12:50:26.287Z,14.89
2018-12-15T12:51:26.273Z,15.50
2018-12-15T12:52:26.268Z,17.70
2018-12-15T12:53:26.250Z,13.80
2018-12-15T12:54:26.243Z,14.69
2018-12-15T12:55:26.234Z,12.39
2018-12-15T12:56:26.219Z,15.30
2018-12-15T12:57:26.207Z,15.89
2018-12-15T12:58:26.197Z,13.39
2018-12-15T12:59:26.185Z,23.10
2018-12-15T13:00:26.169Z,14.80
2018-12-15T13:01:26.159Z,14.10
2018-12-15T13:02:26.147Z,14.69
2018-12-15T13:03:26.158Z,16.50
2018-12-15T13:04:26.133Z,13.39
2018-12-15T13:05:26.112Z,16.79
2018-12-15T13:06:26.103Z,17.10
2018-12-15T13:07:26.094Z,13.50
2018-12-15T13:08:26.078Z,11.80